createdAt,value
2022-11-26T00:01:28.970Z,38.87
2022-11-26T00:03:56.043Z,31.50
2022-11-26T00:06:26.298Z,30.13
2022-11-26T00:08:53.492Z,51.90
2022-11-26T00:11:20.575Z,27.33
2022-11-26T00:13:47.720Z,39.17
2022-11-26T00:16:15.212Z,32.43
2022-11-26T00:18:43.715Z,41.03
2022-11-26T00:21:16.488Z,40.87
2022-11-26T00:23:43.892Z,42.50
2022-11-26T00:26:13.896Z,39.27
2022-11-26T00:28:42.736Z,31.13
2022-11-26T00:31:13.415Z,34.73
2022-11-26T00:33:40.562Z,27.83
2022-11-26T00:36:14.918Z,38.23
2022-11-26T00:38:42.357Z,30.20
2022-11-26T00:41:14.657Z,37.53
2022-11-26T00:43:41.753Z,44.37
2022-11-26T00:46:10.487Z,40.97
2022-11-26T00:48:37.600Z,27.93
2022-11-26T00:51:04.848Z,38.73
2022-11-26T00:53:33.324Z,42.83
2022-11-26T00:56:00.411Z,49.60
2022-11-26T00:58:28.073Z,34.10
2022-11-26T01:00:56.252Z,31.83
2022-11-26T01:03:23.667Z,30.40
2022-11-26T01:05:53.120Z,28.37
2022-11-26T01:08:24.501Z,25.33
2022-11-26T01:10:52.945Z,32.33
2022-11-26T01:13:20.035Z,35.77
2022-11-26T01:15:47.124Z,35.80
2022-11-26T01:18:15.119Z,45.70
2022-11-26T01:20:42.226Z,45.63
2022-11-26T01:23:10.352Z,36.10
2022-11-26T01:25:37.464Z,45.53
2022-11-26T01:28:06.091Z,39.80
2022-11-26T01:30:33.904Z,36.93
2022-11-26T01:33:01.130Z,32.70
2022-11-26T01:35:28.812Z,44.63
2022-11-26T01:37:55.891Z,33.67
2022-11-26T01:40:40.751Z,39.07
2022-11-26T01:43:12.191Z,41.33
2022-11-26T01:45:39.422Z,42.63
2022-11-26T01:48:20.987Z,44.07
2022-11-26T01:50:51.657Z,41.50
2022-11-26T01:53:22.286Z,36.87
2022-11-26T01:55:50.845Z,37.27
2022-11-26T01:58:21.086Z,30.40
2022-11-26T02:00:49.175Z,33.93
2022-11-26T02:03:16.958Z,30.30
2022-11-26T02:05:47.110Z,40.70
2022-11-26T02:08:14.316Z,37.60
2022-11-26T02:10:41.484Z,34.27
2022-11-26T02:13:08.663Z,38.90
2022-11-26T02:15:42.193Z,36.37
2022-11-26T02:18:09.887Z,33.73
2022-11-26T02:20:42.108Z,27.50
2022-11-26T02:23:18.292Z,31.57
2022-11-26T02:26:00.285Z,33.30
2022-11-26T02:28:37.063Z,31.77
2022-11-26T02:31:08.866Z,35.73
2022-11-26T02:33:38.790Z,31.43
2022-11-26T02:36:09.983Z,37.33
2022-11-26T02:38:38.652Z,39.80
2022-11-26T02:41:05.963Z,45.80
2022-11-26T02:43:34.019Z,40.60
2022-11-26T02:46:02.461Z,35.13
2022-11-26T02:48:32.713Z,40.50
2022-11-26T02:51:01.253Z,34.13
2022-11-26T02:53:30.064Z,43.07
2022-11-26T02:56:02.038Z,30.13
2022-11-26T02:58:29.190Z,49.13
2022-11-26T03:00:57.872Z,34.90
2022-11-26T03:03:26.643Z,31.83
2022-11-26T03:05:56.604Z,30.70
2022-11-26T03:08:24.651Z,49.07
2022-11-26T03:10:51.769Z,40.93
2022-11-26T03:13:18.849Z,36.40
2022-11-26T03:15:45.991Z,34.23
2022-11-26T03:18:13.070Z,39.07
2022-11-26T03:20:40.192Z,39.67
2022-11-26T03:23:08.634Z,28.30
2022-11-26T03:25:35.854Z,40.73
2022-11-26T03:28:03.323Z,53.63
2022-11-26T03:30:30.457Z,45.27
2022-11-26T03:32:57.642Z,35.77
2022-11-26T03:35:24.796Z,35.53
2022-11-26T03:37:51.958Z,44.73
2022-11-26T03:40:20.588Z,47.53
2022-11-26T03:42:47.667Z,42.93
2022-11-26T03:45:14.937Z,54.10
2022-11-26T03:47:42.032Z,36.17
2022-11-26T03:50:09.429Z,44.23
2022-11-26T03:52:36.503Z,28.07
2022-11-26T03:55:03.661Z,39.73
2022-11-26T03:57:32.148Z,48.50
2022-11-26T03:59:59.247Z,43.80
2022-11-26T04:02:26.378Z,41.33
2022-11-26T04:04:53.445Z,44.50
2022-11-26T04:07:20.578Z,45.70
2022-11-26T04:09:47.720Z,44.93
2022-11-26T04:12:14.847Z,53.37
2022-11-26T04:14:43.302Z,39.97
2022-11-26T04:17:10.403Z,43.73
2022-11-26T04:19:37.459Z,40.93
2022-11-26T04:22:04.592Z,48.47
2022-11-26T04:24:31.716Z,60.40
2022-11-26T04:26:58.833Z,50.23
2022-11-26T04:29:25.912Z,46.30
2022-11-26T04:31:54.422Z,39.53
2022-11-26T04:34:21.544Z,51.30
2022-11-26T04:36:48.637Z,53.63
2022-11-26T04:39:15.745Z,48.60
2022-11-26T04:41:42.823Z,42.87
2022-11-26T04:44:09.911Z,47.63
2022-11-26T04:46:37.035Z,62.60
2022-11-26T04:49:05.471Z,48.90
2022-11-26T04:51:32.663Z,51.13
2022-11-26T04:54:02.992Z,54.17
2022-11-26T04:56:30.885Z,44.60
2022-11-26T04:58:58.010Z,46.40
2022-11-26T05:01:25.234Z,41.67
2022-11-26T05:03:52.354Z,33.47
2022-11-26T05:06:20.813Z,45.67
2022-11-26T05:08:47.919Z,51.13
2022-11-26T05:11:14.987Z,41.80
2022-11-26T05:13:42.160Z,39.47
2022-11-26T05:16:09.349Z,45.70
2022-11-26T05:18:36.507Z,35.50
2022-11-26T05:21:05.350Z,48.10
2022-11-26T05:23:33.877Z,38.70
2022-11-26T05:26:00.986Z,41.43
2022-11-26T05:28:28.053Z,34.27
2022-11-26T05:30:58.262Z,41.50
2022-11-26T05:33:25.347Z,43.77
2022-11-26T05:35:52.462Z,36.37
2022-11-26T05:38:19.559Z,41.23
2022-11-26T05:40:48.022Z,36.37
2022-11-26T05:43:15.278Z,41.47
2022-11-26T05:45:42.487Z,33.50
2022-11-26T05:48:09.688Z,36.00
2022-11-26T05:50:36.814Z,34.50
2022-11-26T05:53:03.971Z,38.80
2022-11-26T05:55:31.184Z,41.27
2022-11-26T05:57:59.606Z,38.97
2022-11-26T06:00:27.094Z,41.40
2022-11-26T06:02:54.275Z,57.70
2022-11-26T06:05:21.463Z,43.87
2022-11-26T06:07:48.612Z,50.43
2022-11-26T06:10:15.699Z,30.53
2022-11-26T06:12:42.848Z,36.43
2022-11-26T06:15:11.776Z,31.37
2022-11-26T06:17:38.887Z,40.67
2022-11-26T06:20:06.580Z,29.57
2022-11-26T06:22:36.961Z,51.07
2022-11-26T06:25:04.404Z,34.40
2022-11-26T06:27:33.224Z,27.73
2022-11-26T06:30:00.328Z,29.93
2022-11-26T06:32:29.337Z,44.23
2022-11-26T06:34:56.454Z,32.93
2022-11-26T06:37:23.564Z,35.53
2022-11-26T06:39:50.673Z,31.23
2022-11-26T06:42:18.061Z,34.27
2022-11-26T06:44:45.163Z,33.63
2022-11-26T06:47:12.297Z,30.83
2022-11-26T06:49:40.794Z,36.43
2022-11-26T06:52:07.909Z,34.13
2022-11-26T06:54:34.975Z,31.20
2022-11-26T06:57:02.084Z,34.83
2022-11-26T06:59:29.227Z,31.83
2022-11-26T07:01:56.477Z,35.13
2022-11-26T07:04:23.706Z,33.30
2022-11-26T07:06:52.149Z,29.77
2022-11-26T07:09:19.242Z,24.60
2022-11-26T07:11:46.337Z,30.20
2022-11-26T07:14:13.473Z,32.07
2022-11-26T07:16:40.676Z,31.47
2022-11-26T07:19:07.741Z,30.23
2022-11-26T07:21:34.905Z,30.53
2022-11-26T07:24:03.437Z,31.30
2022-11-26T07:26:30.544Z,44.83
2022-11-26T07:28:57.677Z,34.27
2022-11-26T07:31:24.875Z,37.07
2022-11-26T07:33:52.190Z,28.37
2022-11-26T07:36:19.820Z,27.00
2022-11-26T07:38:47.303Z,30.33
2022-11-26T07:41:17.609Z,34.43
2022-11-26T07:43:45.156Z,35.97
2022-11-26T07:46:13.631Z,27.50
2022-11-26T07:48:40.948Z,26.20
2022-11-26T07:51:08.332Z,33.13
2022-11-26T07:53:36.083Z,27.30
2022-11-26T07:56:04.541Z,23.00
2022-11-26T07:58:32.980Z,24.27
2022-11-26T08:01:06.641Z,24.03
2022-11-26T08:03:33.748Z,16.90
2022-11-26T08:06:00.852Z,17.47
2022-11-26T08:08:27.927Z,21.53
2022-11-26T08:10:55.007Z,21.53
2022-11-26T08:13:22.082Z,25.67
2022-11-26T08:15:50.566Z,21.43
2022-11-26T08:18:17.619Z,22.70
2022-11-26T08:20:44.713Z,24.00
2022-11-26T08:23:11.865Z,20.83
2022-11-26T08:25:45.134Z,19.63
2022-11-26T08:28:20.612Z,15.43
2022-11-26T08:30:47.856Z,18.50
2022-11-26T08:33:16.321Z,19.97
2022-11-26T08:36:05.495Z,18.50
2022-11-26T08:38:30.804Z,22.17
2022-11-26T08:41:00.187Z,17.57
2022-11-26T08:43:39.835Z,19.47
2022-11-26T08:46:14.374Z,15.47
2022-11-26T08:48:42.852Z,17.27
2022-11-26T08:51:13.149Z,19.60
2022-11-26T08:53:40.266Z,18.53
2022-11-26T08:56:08.577Z,15.27
2022-11-26T08:58:36.387Z,20.20
2022-11-26T09:01:08.155Z,12.10
2022-11-26T09:03:35.325Z,12.90
2022-11-26T09:06:04.025Z,23.20
2022-11-26T09:08:31.287Z,19.93
2022-11-26T09:10:58.434Z,18.37
2022-11-26T09:13:25.572Z,17.77
2022-11-26T09:15:52.707Z,20.30
2022-11-26T09:18:19.817Z,17.83
2022-11-26T09:20:46.953Z,11.70
2022-11-26T09:23:15.352Z,13.47
2022-11-26T09:25:42.474Z,19.20
2022-11-26T09:28:09.569Z,13.27
2022-11-26T09:30:36.681Z,11.27
2022-11-26T09:33:03.838Z,22.97
2022-11-26T09:35:30.916Z,13.17
2022-11-26T09:37:57.999Z,11.53
2022-11-26T09:40:30.282Z,18.17
2022-11-26T09:43:02.193Z,15.60
2022-11-26T09:45:34.884Z,12.43
2022-11-26T09:48:03.033Z,13.90
2022-11-26T09:50:32.102Z,14.83
2022-11-26T09:53:00.851Z,15.30
2022-11-26T09:55:31.307Z,15.20
2022-11-26T09:58:01.770Z,10.60
2022-11-26T10:00:30.020Z,17.23
2022-11-26T10:02:57.605Z,13.23
2022-11-26T10:05:31.500Z,20.50
2022-11-26T10:08:03.257Z,21.80
2022-11-26T10:10:33.577Z,19.13
2022-11-26T10:13:21.799Z,15.37
2022-11-26T10:15:56.648Z,16.80
2022-11-26T10:18:29.285Z,12.20
2022-11-26T10:21:04.742Z,14.00
2022-11-26T10:23:33.406Z,15.93
2022-11-26T10:26:06.584Z,14.60
2022-11-26T10:28:35.222Z,17.27
2022-11-26T10:31:03.924Z,16.40
2022-11-26T10:33:33.338Z,14.13
2022-11-26T10:36:00.486Z,17.20
2022-11-26T10:38:27.571Z,15.00
2022-11-26T10:40:54.660Z,10.43
2022-11-26T10:43:24.479Z,13.80
2022-11-26T10:45:52.421Z,12.50
2022-11-26T10:48:21.393Z,17.60
2022-11-26T10:50:55.907Z,22.00
2022-11-26T10:53:24.256Z,17.37
2022-11-26T10:55:52.341Z,19.23
2022-11-26T10:58:20.618Z,15.40
2022-11-26T11:00:56.068Z,18.57
2022-11-26T11:03:44.648Z,17.10
2022-11-26T11:06:13.028Z,13.50
2022-11-26T11:08:40.102Z,12.63
2022-11-26T11:11:18.526Z,18.27
2022-11-26T11:13:46.426Z,20.00
2022-11-26T11:16:15.264Z,10.23
2022-11-26T11:18:48.657Z,15.03
2022-11-26T11:21:16.595Z,20.77
2022-11-26T11:24:07.717Z,13.97
2022-11-26T11:26:39.452Z,12.37
2022-11-26T11:29:22.477Z,18.23
2022-11-26T11:31:51.029Z,12.83
2022-11-26T11:34:20.891Z,13.33
2022-11-26T11:36:58.726Z,13.40
2022-11-26T11:39:29.710Z,17.03
2022-11-26T11:41:57.366Z,12.37
2022-11-26T11:44:26.182Z,12.80
2022-11-26T11:47:00.343Z,14.53
2022-11-26T11:49:31.710Z,15.87
2022-11-26T11:52:04.736Z,12.83
2022-11-26T11:54:47.569Z,14.20
2022-11-26T11:57:21.239Z,14.47
2022-11-26T11:59:55.392Z,14.37
2022-11-26T12:02:30.077Z,15.13
2022-11-26T12:05:06.825Z,14.30
2022-11-26T12:07:39.023Z,17.23
2022-11-26T12:10:10.197Z,9.33
2022-11-26T12:12:38.716Z,12.63
2022-11-26T12:15:07.914Z,14.90
2022-11-26T12:17:38.528Z,10.40
2022-11-26T12:20:08.642Z,14.33
2022-11-26T12:22:38.716Z,13.13
2022-11-26T12:25:07.576Z,16.13
2022-11-26T12:27:36.824Z,11.00
2022-11-26T12:30:05.389Z,13.57
2022-11-26T12:32:35.311Z,17.13
2022-11-26T12:35:05.680Z,16.87
2022-11-26T12:37:33.299Z,12.03
2022-11-26T12:40:03.131Z,11.53
2022-11-26T12:42:32.645Z,9.03
2022-11-26T12:45:04.265Z,10.83
2022-11-26T12:47:35.319Z,12.77
2022-11-26T12:50:07.702Z,18.17
2022-11-26T12:52:39.579Z,8.43
2022-11-26T12:55:13.576Z,10.07
2022-11-26T12:57:43.558Z,9.40
2022-11-26T13:00:12.300Z,11.83
2022-11-26T13:02:41.322Z,9.40
2022-11-26T13:05:15.726Z,12.87
2022-11-26T13:07:49.686Z,10.57
2022-11-26T13:10:21.336Z,14.00
2022-11-26T13:12:52.638Z,13.23
2022-11-26T13:15:23.264Z,9.97
2022-11-26T13:17:50.991Z,9.60
2022-11-26T13:20:34.076Z,17.60
2022-11-26T13:23:09.334Z,11.97
2022-11-26T13:25:52.257Z,15.23
2022-11-26T13:28:26.176Z,10.20
2022-11-26T13:31:00.765Z,12.73
2022-11-26T13:33:42.748Z,14.23
2022-11-26T13:36:16.884Z,14.93
2022-11-26T13:38:49.677Z,13.93
2022-11-26T13:41:22.704Z,14.33
2022-11-26T13:44:05.978Z,12.10
2022-11-26T13:46:34.293Z,14.93
2022-11-26T13:49:03.516Z,10.77
2022-11-26T13:51:34.945Z,9.27
2022-11-26T13:54:07.111Z,21.83
2022-11-26T13:56:34.923Z,14.53
2022-11-26T13:59:03.267Z,13.90
2022-11-26T14:01:32.179Z,12.90
2022-11-26T14:03:59.398Z,8.53
2022-11-26T14:06:26.482Z,11.43
2022-11-26T14:08:56.790Z,10.17
2022-11-26T14:11:42.381Z,6.30
2022-11-26T14:14:24.369Z,12.20
2022-11-26T14:17:06.383Z,12.07
2022-11-26T14:19:58.146Z,13.37
2022-11-26T14:22:28.935Z,8.27
2022-11-26T14:24:58.568Z,12.70
2022-11-26T14:27:26.441Z,13.67
2022-11-26T14:29:55.004Z,13.73
2022-11-26T14:32:23.561Z,7.40
2022-11-26T14:34:51.950Z,7.57
2022-11-26T14:37:20.544Z,8.40
2022-11-26T14:39:57.425Z,11.87
2022-11-26T14:42:26.317Z,16.83
2022-11-26T14:45:03.298Z,10.87
2022-11-26T14:47:30.661Z,7.90
2022-11-26T14:49:58.796Z,7.50
2022-11-26T14:52:27.260Z,9.63
2022-11-26T14:54:55.738Z,12.80
2022-11-26T14:57:26.932Z,8.27
2022-11-26T14:59:57.870Z,6.90
2022-11-26T15:02:26.315Z,14.47
2022-11-26T15:05:00.383Z,9.07
2022-11-26T15:07:27.925Z,9.53
2022-11-26T15:10:02.073Z,11.90
2022-11-26T15:12:30.540Z,8.50
2022-11-26T15:14:58.765Z,7.80
2022-11-26T15:17:26.905Z,4.90
2022-11-26T15:19:54.704Z,10.20
2022-11-26T15:22:23.161Z,11.30
2022-11-26T15:24:50.718Z,10.00
2022-11-26T15:27:27.772Z,6.13
2022-11-26T15:29:56.194Z,10.37
2022-11-26T15:32:24.624Z,15.37
2022-11-26T15:34:52.387Z,10.33
2022-11-26T15:37:19.487Z,6.73
2022-11-26T15:39:46.660Z,8.93
2022-11-26T15:42:25.145Z,6.57
2022-11-26T15:44:52.261Z,8.47
2022-11-26T15:47:22.729Z,14.07
2022-11-26T15:49:51.864Z,15.87
2022-11-26T15:52:21.464Z,9.83
2022-11-26T15:55:11.534Z,6.37
2022-11-26T15:57:39.765Z,14.03
2022-11-26T16:00:08.132Z,9.70
2022-11-26T16:02:39.309Z,10.70
2022-11-26T16:05:21.466Z,8.00
2022-11-26T16:07:56.384Z,6.23
2022-11-26T16:10:26.476Z,6.47
2022-11-26T16:13:07.332Z,11.10
2022-11-26T16:15:34.618Z,9.70
2022-11-26T16:18:04.113Z,7.97
2022-11-26T16:20:31.233Z,20.17
2022-11-26T16:22:59.166Z,9.83
2022-11-26T16:25:27.668Z,6.70
2022-11-26T16:28:05.501Z,11.60
2022-11-26T16:30:32.709Z,31.40
2022-11-26T16:33:00.152Z,21.93
2022-11-26T16:35:46.257Z,15.03
2022-11-26T16:38:18.685Z,11.90
2022-11-26T16:40:45.801Z,10.00
2022-11-26T16:43:12.895Z,11.77
2022-11-26T16:45:40.032Z,9.67
2022-11-26T16:48:14.588Z,6.20
2022-11-26T16:50:43.007Z,12.30
2022-11-26T16:53:10.084Z,8.63
2022-11-26T16:55:37.148Z,12.63
2022-11-26T16:58:05.004Z,7.90
2022-11-26T17:00:32.132Z,8.90
2022-11-26T17:02:59.340Z,13.00
2022-11-26T17:05:26.565Z,11.80
2022-11-26T17:07:56.455Z,8.47
2022-11-26T17:10:24.615Z,13.83
2022-11-26T17:12:51.734Z,9.60
2022-11-26T17:15:19.038Z,13.10
2022-11-26T17:17:46.120Z,7.83
2022-11-26T17:20:15.890Z,8.63
2022-11-26T17:22:43.076Z,15.60
2022-11-26T17:25:11.827Z,10.33
2022-11-26T17:27:39.554Z,11.90
2022-11-26T17:30:07.694Z,6.40
2022-11-26T17:32:34.791Z,11.47
2022-11-26T17:35:01.890Z,9.20
2022-11-26T17:37:29.487Z,13.03
2022-11-26T17:39:56.740Z,10.97
2022-11-26T17:42:25.473Z,10.70
2022-11-26T17:44:53.094Z,7.30
2022-11-26T17:47:22.005Z,14.90
2022-11-26T17:49:49.178Z,14.40
2022-11-26T17:52:16.764Z,8.60
2022-11-26T17:54:44.255Z,7.83
2022-11-26T17:57:11.409Z,9.93
2022-11-26T17:59:40.354Z,11.63
2022-11-26T18:02:08.072Z,6.50
2022-11-26T18:04:35.236Z,13.13
2022-11-26T18:07:05.460Z,12.13
2022-11-26T18:09:32.570Z,8.37
2022-11-26T18:12:00.058Z,9.20
2022-11-26T18:14:27.467Z,12.83
2022-11-26T18:16:55.979Z,16.53
2022-11-26T18:19:24.157Z,14.30
2022-11-26T18:21:51.367Z,11.70
2022-11-26T18:24:18.644Z,23.93
2022-11-26T18:26:46.541Z,19.20
2022-11-26T18:29:13.763Z,11.23
2022-11-26T18:31:40.993Z,12.00
2022-11-26T18:34:09.511Z,7.83
2022-11-26T18:36:36.611Z,9.80
2022-11-26T18:39:03.853Z,9.30
2022-11-26T18:41:31.211Z,8.63
2022-11-26T18:43:58.292Z,10.53
2022-11-26T18:46:25.427Z,11.40
2022-11-26T18:48:52.731Z,17.80
2022-11-26T18:51:21.320Z,11.70
2022-11-26T18:53:48.411Z,12.73
2022-11-26T18:56:16.611Z,9.40
2022-11-26T18:58:44.129Z,12.67
2022-11-26T19:01:15.016Z,11.27
2022-11-26T19:03:44.016Z,8.30
2022-11-26T19:06:11.812Z,12.73
2022-11-26T19:08:40.230Z,9.13
2022-11-26T19:11:08.153Z,15.90
2022-11-26T19:13:35.710Z,9.80
2022-11-26T19:16:09.243Z,9.47
2022-11-26T19:18:40.589Z,16.13
2022-11-26T19:21:08.079Z,10.10
2022-11-26T19:23:35.203Z,10.53
2022-11-26T19:26:05.761Z,10.00
2022-11-26T19:28:33.398Z,10.40
2022-11-26T19:31:01.394Z,12.03
2022-11-26T19:33:28.903Z,12.80
2022-11-26T19:35:56.026Z,12.23
2022-11-26T19:38:23.281Z,11.83
2022-11-26T19:40:50.384Z,12.90
2022-11-26T19:43:18.836Z,15.67
2022-11-26T19:45:45.938Z,15.50
2022-11-26T19:48:13.066Z,13.67
2022-11-26T19:50:40.157Z,40.63
2022-11-26T19:53:07.252Z,14.03
2022-11-26T19:55:34.335Z,13.10
2022-11-26T19:58:01.447Z,13.03
2022-11-26T20:00:29.913Z,8.37
2022-11-26T20:02:57.099Z,15.00
2022-11-26T20:05:24.250Z,13.90
2022-11-26T20:07:51.418Z,14.23
2022-11-26T20:10:18.526Z,8.70
2022-11-26T20:12:45.616Z,13.97
2022-11-26T20:15:12.694Z,10.03
2022-11-26T20:17:41.127Z,18.70
2022-11-26T20:20:08.687Z,11.70
2022-11-26T20:22:35.809Z,14.20
2022-11-26T20:25:02.904Z,17.13
2022-11-26T20:27:30.008Z,10.77
2022-11-26T20:29:57.112Z,13.67
2022-11-26T20:32:24.212Z,17.30
2022-11-26T20:34:52.615Z,10.63
2022-11-26T20:37:19.733Z,9.67
2022-11-26T20:39:46.806Z,11.83
2022-11-26T20:42:13.926Z,17.53
2022-11-26T20:44:41.024Z,11.17
2022-11-26T20:47:08.212Z,10.90
2022-11-26T20:49:38.856Z,12.13
2022-11-26T20:52:09.973Z,18.83
2022-11-26T20:54:37.037Z,11.10
2022-11-26T20:57:04.174Z,13.50
2022-11-26T20:59:31.242Z,12.50
2022-11-26T21:01:58.370Z,14.70
2022-11-26T21:04:25.427Z,13.87
2022-11-26T21:06:52.509Z,20.70
2022-11-26T21:09:20.944Z,9.37
2022-11-26T21:11:48.010Z,15.63
2022-11-26T21:14:15.472Z,13.10
2022-11-26T21:16:42.896Z,19.23
2022-11-26T21:19:11.405Z,17.83
2022-11-26T21:21:38.560Z,19.57
2022-11-26T21:24:05.934Z,20.33
2022-11-26T21:26:34.375Z,14.07
2022-11-26T21:29:02.323Z,15.23
2022-11-26T21:31:30.232Z,9.80
2022-11-26T21:33:58.547Z,12.60
2022-11-26T21:36:25.674Z,13.43
2022-11-26T21:38:53.014Z,11.63
2022-11-26T21:41:20.563Z,17.10
2022-11-26T21:43:49.381Z,14.93
2022-11-26T21:46:17.540Z,14.47
2022-11-26T21:48:44.712Z,12.50
2022-11-26T21:51:12.800Z,14.03
2022-11-26T21:53:40.017Z,10.90
2022-11-26T21:56:07.695Z,10.70
2022-11-26T21:58:34.907Z,7.63
2022-11-26T22:01:09.372Z,19.33
2022-11-26T22:03:36.547Z,12.67
2022-11-26T22:06:03.633Z,12.43
2022-11-26T22:08:30.875Z,11.40
2022-11-26T22:10:57.940Z,17.27
2022-11-26T22:13:25.072Z,22.13
2022-11-26T22:15:52.191Z,14.90
2022-11-26T22:18:20.655Z,24.60
2022-11-26T22:20:50.427Z,21.47
2022-11-26T22:23:17.603Z,14.23
2022-11-26T22:25:44.777Z,24.20
2022-11-26T22:28:11.894Z,15.40
2022-11-26T22:30:38.999Z,17.80
2022-11-26T22:33:06.106Z,16.90
2022-11-26T22:35:34.688Z,14.80
2022-11-26T22:38:02.199Z,12.80
2022-11-26T22:40:29.285Z,16.23
2022-11-26T22:42:56.352Z,13.00
2022-11-26T22:45:23.480Z,14.93
2022-11-26T22:47:52.826Z,22.67
2022-11-26T22:50:20.204Z,22.23
2022-11-26T22:52:48.628Z,10.30
2022-11-26T22:55:15.796Z,11.00
2022-11-26T22:57:42.864Z,16.53
2022-11-26T23:00:11.856Z,12.93
2022-11-26T23:02:39.030Z,21.20
2022-11-26T23:05:06.544Z,18.80
2022-11-26T23:07:34.389Z,9.93
2022-11-26T23:10:02.944Z,8.43
2022-11-26T23:12:30.023Z,19.80
2022-11-26T23:14:57.127Z,11.80
2022-11-26T23:17:24.194Z,8.80
2022-11-26T23:19:51.291Z,17.63
2022-11-26T23:22:18.384Z,11.63
2022-11-26T23:24:45.515Z,10.27
2022-11-26T23:27:13.933Z,9.40
2022-11-26T23:29:41.269Z,10.57
2022-11-26T23:32:08.533Z,14.50
2022-11-26T23:34:35.665Z,10.80
2022-11-26T23:37:02.753Z,17.90
2022-11-26T23:39:29.940Z,9.77
2022-11-26T23:41:57.043Z,21.83
2022-11-26T23:44:25.452Z,11.83
2022-11-26T23:46:52.569Z,17.33
2022-11-26T23:49:19.660Z,13.20
2022-11-26T23:51:46.843Z,12.40
2022-11-26T23:54:13.945Z,7.67
2022-11-26T23:56:41.278Z,14.80
2022-11-26T23:59:08.355Z,9.70
